This is the latest recevied weather packets stored in our database for station/object IN3XSV-13. If no packets are shown the sender has not sent any weather packets the latest 10 day(s).
| Time | Temp. | Humidity | Pressure | Rain* | Wind** | Luminosity | Snow |
|---|---|---|---|---|---|---|---|
| 1787640172 | 19.44° C | 83% | 1005.7 hPa | 0 mm | - | - | - |
| 1787639872 | 19.44° C | 83% | 1005.7 hPa | 0 mm | - | - | - |
| 1787639572 | 19.44° C | 83% | 1005.8 hPa | 0 mm | - | - | - |
| 1787638972 | 20° C | 81% | 1005.8 hPa | 0 mm | - | - | - |
| 1787638672 | 21.11° C | 79% | 1005.8 hPa | 0 mm | - | - | - |
| 1787638372 | 22.22° C | 79% | 1005.7 hPa | 0 mm | - | - | - |
| 1787638072 | 21.67° C | 82% | 1005.8 hPa | 0 mm | - | - | - |
| 1787637772 | 20° C | 84% | 1005.7 hPa | 0 mm | - | - | - |
| 1787637472 | 18.89° C | 85% | 1005.8 hPa | 0 mm | - | - | - |
| 1787637172 | 18.89° C | 85% | 1005.9 hPa | 0 mm | - | - | - |
| 1787636872 | 18.33° C | 86% | 1005.8 hPa | 0 mm | - | - | - |
| 1787636572 | 17.78° C | 86% | 1005.8 hPa | 0 mm | - | - | - |
| 1787636272 | 17.78° C | 86% | 1005.8 hPa | 0 mm | - | - | - |
| 1787635972 | 17.78° C | 86% | 1005.9 hPa | 0 mm | - | - | - |
| 1787635672 | 17.78° C | 86% | 1006 hPa | 0 mm | - | - | - |
| 1787635372 | 17.78° C | 86% | 1006.1 hPa | 0 mm | - | - | - |
| 1787635072 | 17.78° C | 86% | 1006.2 hPa | 0 mm | - | - | - |
| 1787634772 | 17.78° C | 86% | 1006.2 hPa | 0 mm | - | - | - |
| 1787634472 | 17.78° C | 86% | 1006.1 hPa | 0 mm | - | - | - |
| 1787634172 | 17.78° C | 86% | 1006.1 hPa | 0 mm | - | - | - |
| 1787633872 | 17.78° C | 86% | 1006.3 hPa | 0 mm | - | - | - |
| 1787633572 | 17.78° C | 86% | 1006.2 hPa | 0 mm | - | - | - |
| 1787633272 | 17.78° C | 86% | 1006.2 hPa | 0 mm | - | - | - |
| 1787632972 | 17.78° C | 85% | 1006.1 hPa | 0 mm | - | - | - |
| 1787632672 | 17.78° C | 86% | 1006.3 hPa | 0 mm | - | - | - |
* Rain latest hour (hover to see other rain measurements)
** Current wind speed in m/s (hover to see current wind gust speed)